createdAt,value
2023-04-11T00:01:51.345Z,95105.28
2023-04-11T00:04:21.077Z,95105.88
2023-04-11T00:06:49.291Z,95094.69
2023-04-11T00:09:17.874Z,95100.50
2023-04-11T00:11:48.124Z,95073.53
2023-04-11T00:14:17.734Z,95100.22
2023-04-11T00:16:45.811Z,95085.53
2023-04-11T00:19:15.404Z,95089.47
2023-04-11T00:21:44.289Z,95088.81
2023-04-11T00:24:12.255Z,95085.81
2023-04-11T00:26:40.164Z,95091.03
2023-04-11T00:29:09.526Z,95096.09
2023-04-11T00:31:37.428Z,95079.53
2023-04-11T00:34:05.782Z,95091.97
2023-04-11T00:36:33.768Z,95089.00
2023-04-11T00:39:02.406Z,95090.72
2023-04-11T00:41:30.405Z,95091.50
2023-04-11T00:43:58.794Z,95091.38
2023-04-11T00:46:28.261Z,95088.03
2023-04-11T00:48:56.512Z,95088.84
2023-04-11T00:51:24.753Z,95087.88
2023-04-11T00:53:52.785Z,95091.97
2023-04-11T00:56:20.972Z,95093.72
2023-04-11T00:58:49.378Z,95072.56
2023-04-11T01:01:20.045Z,95085.97
2023-04-11T01:03:49.579Z,95092.28
2023-04-11T01:06:19.947Z,95094.66
2023-04-11T01:08:48.892Z,95093.09
2023-04-11T01:11:20.237Z,95093.09
2023-04-11T01:13:48.834Z,95095.94
2023-04-11T01:16:21.399Z,95095.16
2023-04-11T01:18:51.135Z,95092.13
2023-04-11T01:21:20.918Z,95100.66
2023-04-11T01:23:52.935Z,95090.88
2023-04-11T01:26:22.180Z,95086.16
2023-04-11T01:28:50.117Z,95083.00
2023-04-11T01:31:18.159Z,95086.16
2023-04-11T01:33:46.177Z,95041.97
2023-04-11T01:36:14.517Z,95079.81
2023-04-11T01:38:42.886Z,95077.66
2023-04-11T01:41:12.506Z,95075.72
2023-04-11T01:43:41.109Z,95073.53
2023-04-11T01:46:09.636Z,95071.00
2023-04-11T01:48:38.664Z,95071.97
2023-04-11T01:51:07.629Z,95069.75
2023-04-11T01:53:35.744Z,95067.53
2023-04-11T01:56:03.695Z,95062.94
2023-04-11T01:58:33.017Z,95068.00
2023-04-11T02:01:01.939Z,95068.00
2023-04-11T02:03:30.224Z,95068.78
2023-04-11T02:05:59.055Z,95072.72
2023-04-11T02:08:27.033Z,95065.34
2023-04-11T02:10:54.993Z,95069.91
2023-04-11T02:13:23.350Z,95075.13
2023-04-11T02:15:52.825Z,95076.38
2023-04-11T02:18:21.068Z,95074.97
2023-04-11T02:20:50.254Z,95070.19
2023-04-11T02:23:18.291Z,95080.16
2023-04-11T02:25:46.350Z,95072.88
2023-04-11T02:28:14.337Z,95076.34
2023-04-11T02:30:42.275Z,95068.13
2023-04-11T02:33:12.060Z,95071.75
2023-04-11T02:35:40.062Z,95070.81
2023-04-11T02:38:08.092Z,95076.63
2023-04-11T02:40:36.085Z,95065.13
2023-04-11T02:43:04.099Z,95067.81
2023-04-11T02:45:32.305Z,95060.56
2023-04-11T02:48:00.437Z,95064.50
2023-04-11T02:50:30.877Z,95061.31
2023-04-11T02:52:58.846Z,95055.66
2023-04-11T02:55:27.160Z,95055.81
2023-04-11T02:57:55.142Z,95047.47
2023-04-11T03:00:23.308Z,95055.34
2023-04-11T03:02:51.272Z,95052.03
2023-04-11T03:05:19.193Z,95048.41
2023-04-11T03:07:48.554Z,95055.81
2023-04-11T03:10:16.660Z,95048.84
2023-04-11T03:12:44.599Z,95053.59
2023-04-11T03:15:15.544Z,95053.13
2023-04-11T03:17:43.718Z,95048.09
2023-04-11T03:20:13.758Z,95050.94
2023-04-11T03:22:41.752Z,95048.84
2023-04-11T03:25:11.457Z,95036.25
2023-04-11T03:27:39.486Z,95057.41
2023-04-11T03:30:08.805Z,95054.22
2023-04-11T03:32:36.838Z,95048.72
2023-04-11T03:35:05.078Z,95054.22
2023-04-11T03:37:33.048Z,95052.66
2023-04-11T03:40:00.970Z,95055.97
2023-04-11T03:42:30.254Z,95044.44
2023-04-11T03:44:58.186Z,95051.69
2023-04-11T03:47:26.292Z,95047.91
2023-04-11T03:49:54.198Z,95043.16
2023-04-11T03:52:22.168Z,95050.13
2023-04-11T03:54:50.132Z,95044.16
2023-04-11T03:57:18.109Z,95044.75
2023-04-11T03:59:47.980Z,95049.81
2023-04-11T04:02:16.822Z,95053.28
2023-04-11T04:04:48.805Z,95050.13
2023-04-11T04:07:18.241Z,95048.53
2023-04-11T04:09:46.230Z,95054.53
2023-04-11T04:12:14.169Z,95053.56
2023-04-11T04:14:42.151Z,95053.28
2023-04-11T04:17:11.659Z,95046.63
2023-04-11T04:19:39.723Z,95042.03
2023-04-11T04:22:11.742Z,95052.00
2023-04-11T04:24:42.082Z,95024.53
2023-04-11T04:27:10.544Z,95014.59
2023-04-11T04:29:39.702Z,94999.59
2023-04-11T04:32:11.272Z,95006.53
2023-04-11T04:34:46.966Z,95046.78
2023-04-11T04:37:21.944Z,95045.19
2023-04-11T04:39:54.392Z,94963.47
2023-04-11T04:42:24.007Z,95028.50
2023-04-11T04:44:52.594Z,95032.91
2023-04-11T04:47:21.140Z,95042.50
2023-04-11T04:49:50.494Z,95040.63
2023-04-11T04:52:18.513Z,94969.66
2023-04-11T04:54:46.921Z,95035.94
2023-04-11T04:57:14.889Z,94980.53
2023-04-11T04:59:43.208Z,95016.97
2023-04-11T05:02:11.435Z,95018.25
2023-04-11T05:04:39.830Z,95035.47
2023-04-11T05:07:09.357Z,94973.16
2023-04-11T05:09:37.285Z,95030.91
2023-04-11T05:12:07.112Z,95032.03
2023-04-11T05:14:35.415Z,95030.09
2023-04-11T05:17:03.525Z,95037.38
2023-04-11T05:19:32.393Z,95020.31
2023-04-11T05:22:00.858Z,95029.97
2023-04-11T05:24:30.285Z,95034.09
2023-04-11T05:26:58.354Z,95028.25
2023-04-11T05:29:26.425Z,95025.09
2023-04-11T05:31:54.425Z,94999.06
2023-04-11T05:34:22.871Z,95024.28
2023-04-11T05:36:51.103Z,95003.66
2023-04-11T05:39:19.019Z,95029.69
2023-04-11T05:41:48.795Z,95015.31
2023-04-11T05:44:17.164Z,95007.13
2023-04-11T05:46:45.165Z,95016.09
2023-04-11T05:49:13.407Z,95027.63
2023-04-11T05:51:41.457Z,95018.47
2023-04-11T05:54:09.436Z,95011.97
2023-04-11T05:56:39.803Z,95017.31
2023-04-11T05:59:09.231Z,95018.88
2023-04-11T06:01:40.107Z,95014.31
2023-04-11T06:04:08.309Z,95013.81
2023-04-11T06:06:36.593Z,95003.22
2023-04-11T06:09:05.297Z,94988.06
2023-04-11T06:11:33.258Z,94986.63
2023-04-11T06:14:01.492Z,94999.50
2023-04-11T06:16:32.742Z,95000.47
2023-04-11T06:19:01.298Z,94992.84
2023-04-11T06:21:29.306Z,94941.97
2023-04-11T06:24:00.595Z,94987.78
2023-04-11T06:26:28.646Z,94996.56
2023-04-11T06:28:56.585Z,94983.66
2023-04-11T06:31:24.869Z,94992.50
2023-04-11T06:33:54.770Z,94983.47
2023-04-11T06:36:23.196Z,94975.72
2023-04-11T06:38:51.193Z,94973.03
2023-04-11T06:41:19.323Z,94955.97
2023-04-11T06:43:47.274Z,94968.53
2023-04-11T06:46:15.290Z,94964.03
2023-04-11T06:48:43.744Z,94959.97
2023-04-11T06:51:13.257Z,94910.06
2023-04-11T06:53:41.365Z,94964.25
2023-04-11T06:56:10.616Z,94970.72
2023-04-11T06:58:38.558Z,94965.56
2023-04-11T07:01:07.264Z,94965.50
2023-04-11T07:03:35.336Z,94976.25
2023-04-11T07:06:03.532Z,94983.88
2023-04-11T07:08:33.048Z,94986.22
2023-04-11T07:11:01.150Z,94971.94
2023-04-11T07:13:29.284Z,94903.53
2023-04-11T07:15:57.351Z,94831.59
2023-04-11T07:18:26.065Z,94952.56
2023-04-11T07:20:54.003Z,94963.63
2023-04-11T07:23:23.723Z,94962.97
2023-04-11T07:25:54.547Z,94971.81
2023-04-11T07:28:23.759Z,94912.47
2023-04-11T07:30:51.692Z,94938.44
2023-04-11T07:33:19.961Z,94947.66
2023-04-11T07:35:48.067Z,94945.19
2023-04-11T07:38:29.652Z,94957.78
2023-04-11T07:41:01.154Z,94953.50
2023-04-11T07:43:30.199Z,94937.66
2023-04-11T07:46:00.919Z,94941.13
2023-04-11T07:48:29.431Z,94930.63
2023-04-11T07:50:57.475Z,94895.56
2023-04-11T07:53:26.875Z,94937.56
2023-04-11T07:55:57.347Z,94948.34
2023-04-11T07:58:26.767Z,94894.31
2023-04-11T08:00:58.381Z,94855.31
2023-04-11T08:03:27.331Z,94926.75
2023-04-11T08:05:56.224Z,94932.34
2023-04-11T08:08:24.406Z,94930.03
2023-04-11T08:10:52.522Z,94925.00
2023-04-11T08:13:20.535Z,94920.69
2023-04-11T08:15:49.865Z,94918.72
2023-04-11T08:18:21.585Z,94924.53
2023-04-11T08:20:49.692Z,94913.25
2023-04-11T08:23:20.336Z,94889.94
2023-04-11T08:25:48.749Z,94904.66
2023-04-11T08:28:18.661Z,94894.88
2023-04-11T08:30:46.773Z,94897.81
2023-04-11T08:33:16.435Z,94899.25
2023-04-11T08:35:44.505Z,94874.69
2023-04-11T08:38:12.621Z,94884.59
2023-04-11T08:40:40.629Z,94895.13
2023-04-11T08:43:12.373Z,94886.56
2023-04-11T08:45:43.315Z,94882.09
2023-04-11T08:48:12.676Z,94876.31
2023-04-11T08:50:42.771Z,94889.91
2023-04-11T08:53:10.965Z,94885.81
2023-04-11T08:55:46.332Z,94883.50
2023-04-11T08:58:14.655Z,94878.81
2023-04-11T09:00:42.732Z,94877.66
2023-04-11T09:03:12.575Z,94870.38
2023-04-11T09:05:44.696Z,94869.00
2023-04-11T09:08:14.420Z,94858.22
2023-04-11T09:10:45.769Z,94852.50
2023-04-11T09:13:23.662Z,94808.13
2023-04-11T09:16:06.169Z,94818.66
2023-04-11T09:18:35.337Z,94841.69
2023-04-11T09:21:07.035Z,94788.38
2023-04-11T09:23:35.517Z,94830.88
2023-04-11T09:26:06.298Z,94826.88
2023-04-11T09:28:43.057Z,94836.31
2023-04-11T09:31:13.576Z,94810.19
2023-04-11T09:33:53.943Z,94819.94
2023-04-11T09:36:25.442Z,94836.34
2023-04-11T09:38:56.811Z,94829.53
2023-04-11T09:41:32.455Z,94716.66
2023-04-11T09:44:03.912Z,94817.25
2023-04-11T09:46:32.079Z,94807.31
2023-04-11T09:49:03.263Z,94807.41
2023-04-11T09:51:36.916Z,94800.53
2023-04-11T09:54:06.482Z,94786.75
2023-04-11T09:56:35.544Z,94812.13
2023-04-11T09:59:05.176Z,94797.66
2023-04-11T10:01:33.608Z,94790.59
2023-04-11T10:04:02.278Z,94790.84
2023-04-11T10:06:35.061Z,94792.16
2023-04-11T10:09:08.486Z,94796.50
2023-04-11T10:11:36.988Z,94777.75
2023-04-11T10:14:05.184Z,94786.72
2023-04-11T10:16:34.512Z,94784.75
2023-04-11T10:19:25.294Z,94773.97
2023-04-11T10:21:54.752Z,94777.50
2023-04-11T10:24:22.973Z,94770.94
2023-04-11T10:26:52.774Z,94766.69
2023-04-11T10:29:51.390Z,94757.16
2023-04-11T10:32:25.986Z,94757.09
2023-04-11T10:35:22.894Z,94743.53
2023-04-11T10:37:52.633Z,94702.28
2023-04-11T10:40:21.724Z,94725.06
2023-04-11T10:42:50.171Z,94736.59
2023-04-11T10:45:24.496Z,94728.22
2023-04-11T10:48:11.693Z,94713.97
2023-04-11T10:50:44.568Z,94719.72
2023-04-11T10:53:36.712Z,94678.41
2023-04-11T10:56:05.009Z,94717.00
2023-04-11T10:58:37.989Z,94727.03
2023-04-11T11:01:31.178Z,94717.41
2023-04-11T11:04:06.298Z,94711.97
2023-04-11T11:06:46.036Z,94704.47
2023-04-11T11:09:27.001Z,94675.81
2023-04-11T11:12:07.920Z,94690.94
2023-04-11T11:14:36.348Z,94690.97
2023-04-11T11:17:04.719Z,94703.91
2023-04-11T11:19:33.418Z,94689.72
2023-04-11T11:22:04.089Z,94678.78
2023-04-11T11:24:33.666Z,94688.16
2023-04-11T11:27:01.671Z,94686.38
2023-04-11T11:29:32.878Z,94674.97
2023-04-11T11:32:03.527Z,94669.75
2023-04-11T11:34:33.238Z,94656.50
2023-04-11T11:37:04.889Z,94662.50
2023-04-11T11:39:35.650Z,94660.94
2023-04-11T11:42:06.121Z,94639.19
2023-04-11T11:44:34.495Z,94639.41
2023-04-11T11:47:03.930Z,94634.72
2023-04-11T11:49:45.839Z,94634.69
2023-04-11T11:52:14.190Z,94653.34
2023-04-11T11:54:47.992Z,94641.84
2023-04-11T11:57:23.375Z,94624.66
2023-04-11T11:59:55.066Z,94626.84
2023-04-11T12:02:25.589Z,94615.75
2023-04-11T12:05:00.245Z,94624.34
2023-04-11T12:07:32.692Z,94622.78
2023-04-11T12:10:02.470Z,94622.31
2023-04-11T12:12:36.335Z,94618.63
2023-04-11T12:15:04.992Z,94623.69
2023-04-11T12:17:37.847Z,94608.31
2023-04-11T12:22:54.663Z,94614.00
2023-04-11T12:25:25.877Z,94605.34
2023-04-11T12:27:54.049Z,94598.09
2023-04-11T12:30:22.098Z,94601.56
2023-04-11T12:32:50.293Z,94590.47
2023-04-11T12:35:18.385Z,94594.78
2023-04-11T12:37:46.704Z,94581.47
2023-04-11T12:40:17.778Z,94592.41
2023-04-11T12:42:56.885Z,94581.91
2023-04-11T12:45:26.153Z,94569.59
2023-04-11T12:47:54.662Z,94546.31
2023-04-11T12:50:24.525Z,94571.75
2023-04-11T12:55:39.856Z,94535.66
2023-04-11T12:58:09.475Z,94575.78
2023-04-11T13:00:37.419Z,94536.47
2023-04-11T13:03:06.146Z,94571.91
2023-04-11T13:05:34.352Z,94561.47
2023-04-11T13:08:02.654Z,94497.13
2023-04-11T13:10:30.609Z,94548.63
2023-04-11T13:13:05.433Z,94554.75
2023-04-11T13:15:41.606Z,94544.38
2023-04-11T13:18:09.576Z,94537.22
2023-04-11T13:20:37.762Z,94540.66
2023-04-11T13:23:05.783Z,94429.94
2023-04-11T13:25:33.755Z,94543.03
2023-04-11T13:28:02.515Z,94537.72
2023-04-11T13:30:30.579Z,94542.16
2023-04-11T13:33:00.080Z,94524.53
2023-04-11T13:35:28.161Z,94546.09
2023-04-11T13:37:56.218Z,94538.50
2023-04-11T13:40:24.205Z,94544.97
2023-04-11T13:42:54.622Z,94521.44
2023-04-11T13:45:22.818Z,94530.50
2023-04-11T13:47:51.033Z,94547.78
2023-04-11T13:50:20.353Z,94516.56
2023-04-11T13:52:48.399Z,94537.19
2023-04-11T13:55:16.450Z,94517.38
2023-04-11T13:57:44.605Z,94531.09
2023-04-11T14:00:13.502Z,94521.59
2023-04-11T14:02:42.399Z,94532.78
2023-04-11T14:05:12.031Z,94522.38
2023-04-11T14:07:41.518Z,94521.84
2023-04-11T14:10:10.686Z,94524.72
2023-04-11T14:12:39.235Z,94512.91
2023-04-11T14:15:09.057Z,94522.69
2023-04-11T14:17:37.167Z,94517.94
2023-04-11T14:20:06.972Z,94517.13
2023-04-11T14:22:35.283Z,94516.03
2023-04-11T14:25:05.560Z,94521.41
2023-04-11T14:27:33.666Z,94508.59
2023-04-11T14:30:01.891Z,94523.25
2023-04-11T14:32:30.136Z,94508.56
2023-04-11T14:34:59.112Z,94512.22
2023-04-11T14:37:28.114Z,94517.56
2023-04-11T14:39:56.030Z,94506.75
2023-04-11T14:42:25.589Z,94447.50
2023-04-11T14:44:53.762Z,94425.50
2023-04-11T14:47:23.009Z,94506.19
2023-04-11T14:49:50.934Z,94498.94
2023-04-11T14:52:19.185Z,94493.50
2023-04-11T14:54:47.353Z,94494.91
2023-04-11T14:57:15.708Z,94513.19
2023-04-11T14:59:45.434Z,94490.16
2023-04-11T15:02:13.669Z,94459.13
2023-04-11T15:04:41.805Z,94506.81
2023-04-11T15:07:10.129Z,94487.38
2023-04-11T15:09:38.091Z,94504.88
2023-04-11T15:12:06.882Z,94509.81
2023-04-11T15:14:34.897Z,94497.00
2023-04-11T15:17:04.335Z,94497.00
2023-04-11T15:19:32.280Z,94507.06
2023-04-11T15:22:00.312Z,94490.19
2023-04-11T15:24:28.485Z,94450.78
2023-04-11T15:26:56.768Z,94493.66
2023-04-11T15:29:25.263Z,94503.06
2023-04-11T15:31:53.368Z,94498.38
2023-04-11T15:34:23.666Z,94512.25
2023-04-11T15:36:51.693Z,94511.19
2023-04-11T15:39:19.961Z,94483.03
2023-04-11T15:41:48.577Z,94513.16
2023-04-11T15:44:16.629Z,94458.81
2023-04-11T15:46:46.944Z,94506.81
2023-04-11T15:49:16.850Z,94505.13
2023-04-11T15:51:47.634Z,94513.56
2023-04-11T15:54:15.879Z,94508.81
2023-04-11T15:56:43.873Z,94506.47
2023-04-11T15:59:13.146Z,94515.31
2023-04-11T16:01:41.605Z,94507.19
2023-04-11T16:04:11.450Z,94514.47
2023-04-11T16:06:39.626Z,94502.41
2023-04-11T16:09:10.742Z,94491.41
2023-04-11T16:11:40.143Z,94505.47
2023-04-11T16:14:08.175Z,94492.66
2023-04-11T16:16:36.259Z,94483.53
2023-04-11T16:19:04.305Z,94488.63
2023-04-11T16:21:32.946Z,94492.13
2023-04-11T16:24:01.244Z,94462.03
2023-04-11T16:26:30.999Z,94502.00
2023-04-11T16:28:59.075Z,94490.69
2023-04-11T16:31:27.397Z,94472.09
2023-04-11T16:33:56.270Z,94507.16
2023-04-11T16:36:24.911Z,94463.72
2023-04-11T16:38:52.925Z,94504.31
2023-04-11T16:41:20.960Z,94505.03
2023-04-11T16:43:51.261Z,94492.09
2023-04-11T16:46:19.423Z,94499.06
2023-04-11T16:48:47.922Z,94465.50
2023-04-11T16:51:18.418Z,94504.81
2023-04-11T16:53:47.501Z,94496.72
2023-04-11T16:56:15.522Z,94497.00
2023-04-11T16:58:43.573Z,94501.53
2023-04-11T17:01:13.908Z,94478.47
2023-04-11T17:03:43.384Z,94469.25
2023-04-11T17:06:14.867Z,94500.00
2023-04-11T17:08:43.595Z,94438.34
2023-04-11T17:11:12.256Z,94499.91
2023-04-11T17:13:40.838Z,94505.28
2023-04-11T17:16:10.913Z,94503.69
2023-04-11T17:18:41.122Z,94492.34
2023-04-11T17:21:09.359Z,94502.13
2023-04-11T17:23:43.118Z,94434.69
2023-04-11T17:26:12.176Z,94484.94
2023-04-11T17:28:40.868Z,94492.88
2023-04-11T17:31:15.855Z,94515.13
2023-04-11T17:33:47.937Z,94515.06
2023-04-11T17:36:16.353Z,94433.84
2023-04-11T17:38:45.393Z,94518.13
2023-04-11T17:41:15.446Z,94511.09
2023-04-11T17:43:44.033Z,94529.56
2023-04-11T17:46:12.570Z,94534.16
2023-04-11T17:48:40.699Z,94526.34
2023-04-11T17:51:10.252Z,94530.16
2023-04-11T17:53:38.303Z,94530.94
2023-04-11T17:56:08.116Z,94510.69
2023-04-11T17:58:37.360Z,94512.19
2023-04-11T18:01:11.055Z,94535.41
2023-04-11T18:03:40.352Z,94492.69
2023-04-11T18:06:10.916Z,94538.91
2023-04-11T18:08:50.288Z,94535.50
2023-04-11T18:11:19.504Z,94422.91
2023-04-11T18:13:53.794Z,94538.25
2023-04-11T18:16:22.511Z,94537.94
2023-04-11T18:18:51.681Z,94529.41
2023-04-11T18:21:21.566Z,94548.78
2023-04-11T18:23:49.967Z,94550.25
2023-04-11T18:26:18.335Z,94548.72
2023-04-11T18:28:46.350Z,94509.59
2023-04-11T18:31:15.588Z,94537.78
2023-04-11T18:33:45.911Z,94543.59
2023-04-11T18:36:15.595Z,94493.66
2023-04-11T18:38:45.185Z,94555.78
2023-04-11T18:41:13.372Z,94564.94
2023-04-11T18:43:42.212Z,94551.38
2023-04-11T18:46:10.797Z,94566.34
2023-04-11T18:48:39.401Z,94543.31
2023-04-11T18:51:07.987Z,94528.72
2023-04-11T18:53:36.844Z,94561.13
2023-04-11T18:56:07.479Z,94565.66
2023-04-11T18:58:40.000Z,94559.41
2023-04-11T19:01:15.586Z,94563.66
2023-04-11T19:03:46.256Z,94498.84
2023-04-11T19:06:18.349Z,94564.28
2023-04-11T19:08:48.561Z,94550.63
2023-04-11T19:11:34.035Z,94560.38
2023-04-11T19:16:48.433Z,94547.78
2023-04-11T19:19:16.716Z,94543.69
2023-04-11T19:21:44.607Z,94552.63
2023-04-11T19:24:12.573Z,94570.75
2023-04-11T19:26:42.128Z,94554.72
2023-04-11T19:29:10.170Z,94557.00
2023-04-11T19:31:46.717Z,94543.34
2023-04-11T19:34:15.371Z,94551.19
2023-04-11T19:36:44.880Z,94509.22
2023-04-11T19:39:13.156Z,94553.34
2023-04-11T19:41:45.660Z,94555.97
2023-04-11T19:44:13.904Z,94559.78
2023-04-11T19:46:42.271Z,94546.06
2023-04-11T19:49:12.505Z,94539.00
2023-04-11T19:51:40.736Z,94543.03
2023-04-11T19:54:08.768Z,94481.22
2023-04-11T19:56:39.763Z,94558.72
2023-04-11T19:59:09.183Z,94559.41
2023-04-11T20:01:37.217Z,94555.81
2023-04-11T20:04:15.979Z,94561.53
2023-04-11T20:06:45.096Z,94549.81
2023-04-11T20:09:13.070Z,94551.38
2023-04-11T20:11:43.142Z,94556.31
2023-04-11T20:14:14.990Z,94560.06
2023-04-11T20:16:43.153Z,94554.91
2023-04-11T20:19:11.552Z,94546.41
2023-04-11T20:21:44.905Z,94547.88
2023-04-11T20:24:12.964Z,94552.03
2023-04-11T20:26:41.220Z,94495.78
2023-04-11T20:29:09.183Z,94546.31
2023-04-11T20:31:38.473Z,94537.34
2023-04-11T20:34:06.345Z,94529.34
2023-04-11T20:36:36.061Z,94545.34
2023-04-11T20:39:04.626Z,94544.13
2023-04-11T20:41:32.773Z,94464.72
2023-04-11T20:44:00.909Z,94539.84
2023-04-11T20:46:29.856Z,94549.09
2023-04-11T20:48:59.479Z,94547.50
2023-04-11T20:51:27.537Z,94536.72
2023-04-11T20:53:55.856Z,94525.78
2023-04-11T20:56:24.041Z,94506.19
2023-04-11T20:58:51.995Z,94532.13
2023-04-11T21:01:20.009Z,94535.53
2023-04-11T21:03:48.348Z,94401.94
2023-04-11T21:06:17.741Z,94525.78
2023-04-11T21:08:45.945Z,94496.91
2023-04-11T21:11:13.974Z,94505.94
2023-04-11T21:13:41.952Z,94533.25
2023-04-11T21:16:11.136Z,94533.25
2023-04-11T21:18:39.161Z,94534.72
2023-04-11T21:21:07.455Z,94526.56
2023-04-11T21:23:37.869Z,94534.19
2023-04-11T21:26:06.120Z,94520.88
2023-04-11T21:28:34.186Z,94533.41
2023-04-11T21:31:02.272Z,94520.38
2023-04-11T21:33:30.308Z,94521.50
2023-04-11T21:35:58.423Z,94516.81
2023-04-11T21:38:26.440Z,94521.06
2023-04-11T21:40:57.960Z,94501.50
2023-04-11T21:43:26.007Z,94520.28
2023-04-11T21:45:54.100Z,94520.38
2023-04-11T21:48:22.230Z,94522.28
2023-04-11T21:50:50.278Z,94514.66
2023-04-11T21:53:18.434Z,94519.25
2023-04-11T21:55:47.324Z,94513.97
2023-04-11T21:58:28.582Z,94518.13
2023-04-11T22:00:57.357Z,94453.06
2023-04-11T22:03:26.855Z,94514.91
2023-04-11T22:05:55.036Z,94511.75
2023-04-11T22:08:23.301Z,94514.03
2023-04-11T22:10:52.566Z,94474.91
2023-04-11T22:13:22.031Z,94497.59
2023-04-11T22:15:58.325Z,94508.28
2023-04-11T22:18:27.212Z,94510.22
2023-04-11T22:20:55.360Z,94501.16
2023-04-11T22:23:25.031Z,94504.03
2023-04-11T22:25:57.708Z,94512.13
2023-04-11T22:28:27.179Z,94499.69
2023-04-11T22:30:57.681Z,94495.88
2023-04-11T22:33:25.746Z,94496.22
2023-04-11T22:35:54.594Z,94496.91
2023-04-11T22:38:22.563Z,94494.56
2023-04-11T22:40:50.462Z,94499.16
2023-04-11T22:43:18.552Z,94494.91
2023-04-11T22:45:47.932Z,94491.06
2023-04-11T22:48:16.332Z,94489.84
2023-04-11T22:50:49.551Z,94496.91
2023-04-11T22:53:18.182Z,94486.13
2023-04-11T22:55:46.211Z,94489.78
2023-04-11T22:58:14.178Z,94473.53
2023-04-11T23:00:43.793Z,94482.81
2023-04-11T23:03:14.105Z,94488.88
2023-04-11T23:05:43.360Z,94466.16
2023-04-11T23:08:11.616Z,94473.75
2023-04-11T23:10:39.741Z,94419.09
2023-04-11T23:13:08.635Z,94473.88
2023-04-11T23:15:37.486Z,94467.34
2023-04-11T23:18:05.582Z,94418.84
2023-04-11T23:20:37.060Z,94473.63
2023-04-11T23:23:05.769Z,94469.78
2023-04-11T23:25:34.849Z,94464.47
2023-04-11T23:28:02.834Z,94466.47
2023-04-11T23:30:30.859Z,94451.19
2023-04-11T23:32:59.708Z,94449.50
2023-04-11T23:35:28.044Z,94458.84
2023-04-11T23:37:57.675Z,94451.91
2023-04-11T23:40:25.940Z,94442.50
2023-04-11T23:42:53.964Z,94439.19
2023-04-11T23:45:22.673Z,94443.66
2023-04-11T23:47:51.032Z,94432.41
2023-04-11T23:50:19.379Z,94418.25
2023-04-11T23:52:47.654Z,94442.84
2023-04-11T23:55:16.927Z,94435.56
2023-04-11T23:57:44.912Z,94433.22
